createdAt,value
2022-12-29T00:00:14.922Z,8.50
2022-12-29T00:02:42.790Z,8.40
2022-12-29T00:05:10.738Z,8.40
2022-12-29T00:07:38.196Z,8.40
2022-12-29T00:10:06.376Z,8.30
2022-12-29T00:12:53.774Z,8.30
2022-12-29T00:15:39.502Z,8.40
2022-12-29T00:18:08.431Z,8.40
2022-12-29T00:21:03.788Z,8.30
2022-12-29T00:23:49.747Z,8.40
2022-12-29T00:26:36.679Z,8.70
2022-12-29T00:29:23.066Z,8.70
2022-12-29T00:32:09.041Z,8.70
2022-12-29T00:34:54.974Z,8.50
2022-12-29T00:37:42.643Z,8.50
2022-12-29T00:40:28.792Z,8.50
2022-12-29T00:43:14.787Z,8.40
2022-12-29T00:45:43.014Z,8.30
2022-12-29T00:48:10.461Z,8.30
2022-12-29T00:50:38.182Z,8.10
2022-12-29T00:53:05.635Z,8.20
2022-12-29T00:55:36.994Z,8.30
2022-12-29T00:58:04.539Z,8.20
2022-12-29T01:00:32.877Z,8.30
2022-12-29T01:03:00.602Z,8.40
2022-12-29T01:05:28.242Z,8.40
2022-12-29T01:07:56.224Z,8.30
2022-12-29T01:10:25.192Z,8.40
2022-12-29T01:12:53.959Z,8.20
2022-12-29T01:15:22.313Z,8.10
2022-12-29T01:17:49.911Z,8.20
2022-12-29T01:20:17.660Z,8.30
2022-12-29T01:22:45.973Z,8.30
2022-12-29T01:25:14.265Z,8.40
2022-12-29T01:27:41.915Z,8.40
2022-12-29T01:30:10.119Z,8.50
2022-12-29T01:32:37.553Z,8.40
2022-12-29T01:35:05.840Z,8.40
2022-12-29T01:37:35.839Z,8.40
2022-12-29T01:40:03.622Z,8.40
2022-12-29T01:42:32.900Z,8.40
2022-12-29T01:45:29.167Z,8.50
2022-12-29T01:48:02.114Z,8.50
2022-12-29T01:50:34.429Z,8.60
2022-12-29T01:53:10.165Z,8.60
2022-12-29T01:55:45.694Z,8.70
2022-12-29T01:58:15.952Z,8.60
2022-12-29T02:00:43.588Z,8.50
2022-12-29T02:03:12.004Z,8.40
2022-12-29T02:05:53.903Z,8.60
2022-12-29T02:08:30.121Z,8.70
2022-12-29T02:10:59.198Z,8.60
2022-12-29T02:13:31.369Z,8.60
2022-12-29T02:16:20.753Z,8.50
2022-12-29T02:19:09.504Z,8.60
2022-12-29T02:22:02.771Z,8.70
2022-12-29T02:24:45.659Z,8.70
2022-12-29T02:27:31.424Z,8.70
2022-12-29T02:30:29.550Z,8.70
2022-12-29T02:33:42.075Z,8.70
2022-12-29T02:36:36.778Z,8.80
2022-12-29T02:39:10.128Z,8.90
2022-12-29T02:42:03.714Z,8.80
2022-12-29T02:44:52.349Z,8.80
2022-12-29T02:47:52.168Z,8.80
2022-12-29T02:50:32.827Z,8.70
2022-12-29T02:53:03.460Z,8.60
2022-12-29T02:55:31.046Z,8.50
2022-12-29T02:58:14.983Z,8.30
2022-12-29T03:00:58.810Z,8.20
2022-12-29T03:03:51.596Z,8.00
2022-12-29T03:06:50.678Z,8.00
2022-12-29T03:09:36.849Z,8.00
2022-12-29T03:12:49.232Z,8.10
2022-12-29T03:15:49.025Z,8.20
2022-12-29T03:18:24.062Z,8.10
2022-12-29T03:21:18.223Z,8.10
2022-12-29T03:23:53.494Z,8.30
2022-12-29T03:26:21.667Z,8.40
2022-12-29T03:28:54.263Z,8.40
2022-12-29T03:31:29.364Z,8.40
2022-12-29T03:33:57.941Z,8.30
2022-12-29T03:36:33.935Z,8.30
2022-12-29T03:39:09.536Z,8.20
2022-12-29T03:41:39.091Z,8.20
2022-12-29T03:44:08.896Z,8.20
2022-12-29T03:46:36.474Z,8.30
2022-12-29T03:49:04.610Z,8.40
2022-12-29T03:51:32.992Z,8.20
2022-12-29T03:54:00.616Z,8.30
2022-12-29T03:56:28.159Z,8.20
2022-12-29T03:58:55.708Z,8.20
2022-12-29T04:01:38.292Z,8.30
2022-12-29T04:04:05.984Z,8.30
2022-12-29T04:06:33.629Z,8.30
2022-12-29T04:09:05.653Z,8.20
2022-12-29T04:11:36.926Z,8.20
2022-12-29T04:14:05.282Z,8.10
2022-12-29T04:16:36.771Z,8.20
2022-12-29T04:19:06.771Z,8.00
2022-12-29T04:21:36.354Z,8.00
2022-12-29T04:24:07.480Z,8.00
2022-12-29T04:26:39.181Z,7.80
2022-12-29T04:29:35.758Z,7.90
2022-12-29T04:32:21.735Z,8.10
2022-12-29T04:34:51.516Z,8.10
2022-12-29T04:37:19.894Z,8.30
2022-12-29T04:39:47.874Z,8.20
2022-12-29T04:42:16.062Z,8.20
2022-12-29T04:44:45.424Z,8.20
2022-12-29T04:47:31.422Z,8.10
2022-12-29T04:50:21.931Z,8.20
2022-12-29T04:52:56.169Z,8.20
2022-12-29T04:55:23.666Z,8.30
2022-12-29T04:57:51.376Z,8.20
2022-12-29T05:00:21.433Z,8.20
2022-12-29T05:02:49.022Z,8.20
2022-12-29T05:05:16.901Z,8.10
2022-12-29T05:07:48.510Z,8.30
2022-12-29T05:10:18.781Z,8.20
2022-12-29T05:12:47.081Z,8.10
2022-12-29T05:15:15.467Z,8.10
2022-12-29T05:17:44.051Z,8.10
2022-12-29T05:20:12.135Z,8.10
2022-12-29T05:22:39.655Z,8.10
2022-12-29T05:25:08.368Z,8.10
2022-12-29T05:27:46.677Z,8.10
2022-12-29T05:30:28.452Z,8.10
2022-12-29T05:32:55.940Z,8.30
2022-12-29T05:35:24.413Z,8.20
2022-12-29T05:37:52.198Z,8.30
2022-12-29T05:40:19.691Z,8.30
2022-12-29T05:42:47.252Z,8.10
2022-12-29T05:45:33.302Z,8.00
2022-12-29T05:48:38.267Z,7.80
2022-12-29T05:51:26.139Z,7.80
2022-12-29T05:53:55.149Z,7.90
2022-12-29T05:56:24.076Z,7.80
2022-12-29T05:58:57.403Z,7.80
2022-12-29T06:01:25.574Z,7.90
2022-12-29T06:03:53.441Z,7.90
2022-12-29T06:06:22.341Z,7.80
2022-12-29T06:08:49.963Z,7.80
2022-12-29T06:11:18.313Z,7.80
2022-12-29T06:13:53.727Z,7.90
2022-12-29T06:16:22.287Z,8.00
2022-12-29T06:18:52.745Z,8.10
2022-12-29T06:21:20.322Z,8.00
2022-12-29T06:23:48.191Z,8.10
2022-12-29T06:26:15.839Z,8.10
2022-12-29T06:28:44.629Z,8.10
2022-12-29T06:31:12.600Z,8.10
2022-12-29T06:33:40.909Z,8.10
2022-12-29T06:36:08.766Z,8.10
2022-12-29T06:38:36.395Z,8.10
2022-12-29T06:41:04.126Z,8.10
2022-12-29T06:43:50.037Z,8.00
2022-12-29T06:46:24.351Z,8.10
2022-12-29T06:48:55.033Z,8.30
2022-12-29T06:51:22.986Z,8.30
2022-12-29T06:53:50.566Z,8.30
2022-12-29T06:56:18.124Z,8.20
2022-12-29T06:58:45.643Z,8.00
2022-12-29T07:01:13.265Z,8.00
2022-12-29T07:03:43.741Z,7.90
2022-12-29T07:06:11.336Z,7.80
2022-12-29T07:08:39.594Z,7.90
2022-12-29T07:11:07.521Z,7.90
2022-12-29T07:13:34.992Z,7.70
2022-12-29T07:16:07.703Z,7.70
2022-12-29T07:18:35.671Z,7.80
2022-12-29T07:21:04.032Z,7.80
2022-12-29T07:23:31.969Z,7.70
2022-12-29T07:26:04.631Z,7.80
2022-12-29T07:28:33.332Z,7.90
2022-12-29T07:31:00.881Z,7.80
2022-12-29T07:33:32.370Z,7.80
2022-12-29T07:36:00.365Z,8.10
2022-12-29T07:38:28.132Z,8.10
2022-12-29T07:46:55.809Z,8.20
2022-12-29T07:49:24.628Z,8.30
2022-12-29T07:51:52.319Z,8.30
2022-12-29T07:54:20.696Z,8.40
2022-12-29T07:56:48.360Z,8.40
2022-12-29T07:59:15.938Z,8.40
2022-12-29T08:01:51.456Z,8.50
2022-12-29T08:04:19.476Z,8.50
2022-12-29T08:06:50.167Z,8.50
2022-12-29T08:09:24.261Z,8.60
2022-12-29T08:11:52.334Z,8.70
2022-12-29T08:14:19.969Z,8.70
2022-12-29T08:17:27.372Z,8.60
2022-12-29T08:19:55.050Z,8.50
2022-12-29T08:22:22.752Z,8.40
2022-12-29T08:24:50.852Z,8.50
2022-12-29T08:27:27.965Z,8.60
2022-12-29T08:29:56.428Z,8.50
2022-12-29T08:32:26.481Z,8.60
2022-12-29T08:34:54.137Z,8.50
2022-12-29T08:37:29.046Z,8.50
2022-12-29T08:40:09.930Z,8.60
2022-12-29T08:42:41.168Z,8.60
2022-12-29T08:45:10.034Z,8.50
2022-12-29T08:47:37.830Z,8.40
2022-12-29T08:50:05.878Z,8.40
2022-12-29T08:52:33.496Z,8.40
2022-12-29T08:55:01.043Z,8.40
2022-12-29T08:57:34.417Z,8.40
2022-12-29T09:00:16.130Z,8.40
2022-12-29T09:02:44.075Z,8.50
2022-12-29T09:05:14.767Z,8.60
2022-12-29T09:07:47.765Z,8.70
2022-12-29T09:10:17.937Z,8.70
2022-12-29T09:12:46.709Z,8.70
2022-12-29T09:15:19.779Z,8.80
2022-12-29T09:17:47.509Z,9.00
2022-12-29T09:20:17.926Z,9.00
2022-12-29T09:22:47.511Z,8.90
2022-12-29T09:25:16.738Z,8.70
2022-12-29T09:27:44.442Z,8.80
2022-12-29T09:30:17.011Z,8.70
2022-12-29T09:32:45.874Z,8.80
2022-12-29T09:35:18.077Z,9.00
2022-12-29T09:37:48.385Z,9.00
2022-12-29T09:40:37.800Z,9.00
2022-12-29T09:43:35.199Z,9.00
2022-12-29T09:46:07.214Z,9.10
2022-12-29T09:48:47.895Z,9.00
2022-12-29T09:51:24.885Z,9.10
2022-12-29T09:54:04.368Z,9.20
2022-12-29T09:56:37.352Z,9.40
2022-12-29T09:59:37.310Z,9.50
2022-12-29T10:02:35.677Z,9.50
2022-12-29T10:05:06.644Z,9.50
2022-12-29T10:08:01.694Z,9.40
2022-12-29T10:11:12.169Z,9.30
2022-12-29T10:14:21.379Z,9.30
2022-12-29T10:17:01.760Z,9.20
2022-12-29T10:20:03.575Z,9.30
2022-12-29T10:22:47.058Z,9.40
2022-12-29T10:25:27.126Z,9.70
2022-12-29T10:31:08.996Z,10.10
2022-12-29T10:34:02.605Z,10.20
2022-12-29T10:36:42.855Z,10.20
2022-12-29T10:39:35.297Z,10.40
2022-12-29T10:42:34.311Z,10.40
2022-12-29T10:45:01.990Z,10.40
2022-12-29T10:47:53.132Z,10.40
2022-12-29T10:50:41.004Z,10.50
2022-12-29T10:53:17.685Z,10.50
2022-12-29T10:56:48.937Z,10.40
2022-12-29T10:59:41.780Z,10.20
2022-12-29T11:02:29.194Z,10.20
2022-12-29T11:05:22.863Z,10.40
2022-12-29T11:08:03.063Z,10.50
2022-12-29T11:10:44.833Z,10.50
2022-12-29T11:13:21.461Z,10.40
2022-12-29T11:15:58.880Z,10.50
2022-12-29T11:18:45.245Z,10.70
2022-12-29T11:21:32.187Z,10.80
2022-12-29T11:24:05.882Z,10.80
2022-12-29T11:26:35.433Z,11.00
2022-12-29T11:29:12.407Z,11.10
2022-12-29T11:32:03.945Z,10.70
2022-12-29T11:40:30.302Z,10.40
2022-12-29T11:43:11.607Z,10.30
2022-12-29T11:45:48.230Z,10.20
2022-12-29T11:48:26.088Z,10.10
2022-12-29T11:51:00.849Z,10.20
2022-12-29T11:53:48.180Z,10.20
2022-12-29T11:56:23.863Z,10.20
2022-12-29T11:58:54.465Z,10.20
2022-12-29T12:01:31.279Z,10.10
2022-12-29T12:04:02.137Z,10.00
2022-12-29T12:07:08.927Z,10.00
2022-12-29T12:10:07.769Z,10.00
2022-12-29T12:12:59.125Z,10.00
2022-12-29T12:15:48.230Z,10.00
2022-12-29T12:19:02.980Z,10.00
2022-12-29T12:21:45.713Z,9.90
2022-12-29T12:24:32.467Z,10.10
2022-12-29T12:27:47.620Z,10.10
2022-12-29T12:30:25.269Z,10.10
2022-12-29T12:33:26.904Z,10.00
2022-12-29T12:36:27.213Z,9.80
2022-12-29T12:39:18.312Z,9.90
2022-12-29T12:45:33.953Z,9.90
2022-12-29T12:48:37.998Z,10.00
2022-12-29T12:51:39.825Z,10.00
2022-12-29T12:54:34.288Z,10.00
2022-12-29T12:57:53.484Z,10.00
2022-12-29T13:01:03.494Z,9.90
2022-12-29T13:04:11.658Z,10.10
2022-12-29T13:07:06.428Z,10.10
2022-12-29T13:10:29.175Z,10.20
2022-12-29T13:13:10.599Z,10.10
2022-12-29T13:15:49.996Z,10.10
2022-12-29T13:19:04.227Z,10.30
2022-12-29T13:22:05.942Z,10.20
2022-12-29T13:25:15.159Z,10.10
2022-12-29T13:31:28.708Z,9.90
2022-12-29T13:34:21.744Z,9.80
2022-12-29T13:37:14.314Z,9.80
2022-12-29T13:39:58.342Z,10.00
2022-12-29T13:42:27.709Z,9.90
2022-12-29T13:45:26.524Z,10.00
2022-12-29T13:48:28.788Z,10.20
2022-12-29T13:51:03.535Z,10.20
2022-12-29T13:54:01.273Z,10.10
2022-12-29T13:56:52.380Z,10.00
2022-12-29T14:00:05.678Z,9.90
2022-12-29T14:03:29.872Z,9.90
2022-12-29T14:06:43.872Z,9.90
2022-12-29T14:09:54.886Z,9.90
2022-12-29T14:22:32.930Z,9.90
2022-12-29T14:25:01.679Z,9.80
2022-12-29T14:27:50.806Z,9.70
2022-12-29T14:34:11.647Z,9.80
2022-12-29T14:37:10.999Z,9.80
2022-12-29T14:40:05.090Z,9.70
2022-12-29T14:43:00.031Z,9.70
2022-12-29T14:45:52.082Z,9.70
2022-12-29T14:48:47.109Z,9.70
2022-12-29T14:51:24.321Z,9.60
2022-12-29T14:53:59.109Z,9.60
2022-12-29T14:56:46.925Z,9.50
2022-12-29T14:59:34.791Z,9.30
2022-12-29T15:15:27.708Z,9.60
2022-12-29T15:18:34.815Z,9.60
2022-12-29T15:21:27.699Z,9.50
2022-12-29T15:24:17.005Z,9.50
2022-12-29T15:26:50.321Z,9.50
2022-12-29T15:30:02.027Z,9.50
2022-12-29T15:32:50.039Z,9.60
2022-12-29T15:35:37.976Z,9.80
2022-12-29T16:56:53.714Z,9.50
2022-12-29T17:34:01.527Z,9.30
2022-12-29T17:40:50.312Z,9.50
2022-12-29T17:46:49.255Z,9.40
2022-12-29T17:50:04.350Z,9.50
2022-12-29T17:52:40.794Z,9.40
2022-12-29T17:55:44.431Z,9.40
2022-12-29T17:58:34.947Z,9.40
2022-12-29T18:01:21.218Z,9.40
2022-12-29T18:05:31.355Z,9.50
2022-12-29T18:20:50.261Z,9.40
2022-12-29T18:23:48.262Z,9.50
2022-12-29T18:29:20.619Z,9.40
2022-12-29T18:34:53.898Z,9.40
2022-12-29T18:37:24.882Z,9.40
2022-12-29T18:40:05.176Z,9.40
2022-12-29T18:42:41.548Z,9.40
2022-12-29T18:45:21.094Z,9.40
2022-12-29T18:48:18.416Z,9.40
2022-12-29T18:50:50.090Z,9.30
2022-12-29T18:53:26.348Z,9.30
2022-12-29T18:56:05.177Z,9.40
2022-12-29T18:58:39.435Z,9.40
2022-12-29T19:01:18.611Z,9.30
2022-12-29T19:03:50.127Z,9.20
2022-12-29T19:06:23.966Z,9.40
2022-12-29T19:08:51.751Z,9.40
2022-12-29T19:11:19.376Z,9.30
2022-12-29T19:13:49.532Z,9.30
2022-12-29T19:16:22.254Z,9.30
2022-12-29T19:19:07.990Z,9.20
2022-12-29T19:21:39.475Z,9.30
2022-12-29T19:24:07.841Z,9.30
2022-12-29T19:29:35.523Z,9.20
2022-12-29T19:32:05.315Z,9.20
2022-12-29T19:34:35.770Z,9.30
2022-12-29T19:37:04.281Z,9.40
2022-12-29T19:39:33.679Z,9.40
2022-12-29T19:42:05.838Z,9.40
2022-12-29T19:44:39.656Z,9.40
2022-12-29T19:47:09.819Z,9.20
2022-12-29T19:49:37.542Z,9.20
2022-12-29T19:52:05.165Z,9.10
2022-12-29T19:54:35.885Z,9.00
2022-12-29T19:57:13.354Z,8.90
2022-12-29T19:59:41.155Z,8.90
2022-12-29T20:02:20.180Z,8.90
2022-12-29T20:04:54.555Z,8.90
2022-12-29T20:07:23.492Z,8.80
2022-12-29T20:09:51.559Z,8.90
2022-12-29T20:12:27.301Z,8.90
2022-12-29T20:15:09.971Z,8.90
2022-12-29T20:20:28.956Z,9.00
2022-12-29T20:23:00.035Z,9.30
2022-12-29T20:25:50.917Z,9.30
2022-12-29T20:28:18.733Z,9.10
2022-12-29T20:31:05.243Z,9.20
2022-12-29T20:33:35.763Z,9.30
2022-12-29T20:36:12.523Z,9.20
2022-12-29T20:38:42.115Z,9.20
2022-12-29T20:41:12.371Z,9.40
2022-12-29T20:43:41.274Z,9.30
2022-12-29T20:46:32.828Z,9.40
2022-12-29T20:49:05.851Z,9.20
2022-12-29T20:52:04.527Z,9.30
2022-12-29T20:54:24.865Z,9.40
2022-12-29T20:57:03.777Z,9.30
2022-12-29T20:59:31.538Z,9.20
2022-12-29T21:01:59.442Z,9.20
2022-12-29T21:04:57.410Z,9.10
2022-12-29T21:07:25.935Z,9.00
2022-12-29T21:09:53.782Z,9.00
2022-12-29T21:12:21.572Z,9.10
2022-12-29T21:17:44.507Z,9.10
2022-12-29T21:20:20.348Z,9.00
2022-12-29T21:22:49.541Z,9.00
2022-12-29T21:25:20.380Z,9.00
2022-12-29T21:27:48.561Z,8.90
2022-12-29T21:30:18.555Z,9.00
2022-12-29T21:32:51.901Z,9.00
2022-12-29T21:35:24.456Z,9.00
2022-12-29T21:37:52.903Z,9.10
2022-12-29T21:40:23.253Z,9.10
2022-12-29T21:42:51.790Z,9.00
2022-12-29T21:45:25.401Z,9.00
2022-12-29T21:48:17.159Z,9.00
2022-12-29T21:51:14.198Z,9.10
2022-12-29T21:53:45.856Z,9.10
2022-12-29T21:56:23.460Z,9.00
2022-12-29T22:02:45.339Z,9.00
2022-12-29T22:05:33.691Z,8.90
2022-12-29T22:08:24.251Z,8.80
2022-12-29T22:11:10.224Z,8.90
2022-12-29T22:13:39.661Z,8.80
2022-12-29T22:16:10.945Z,8.90
2022-12-29T22:18:45.938Z,8.90
2022-12-29T22:21:43.316Z,8.90
2022-12-29T22:24:34.053Z,8.90
2022-12-29T22:27:08.179Z,8.90
2022-12-29T22:29:36.194Z,8.80
2022-12-29T22:32:06.615Z,8.80
2022-12-29T22:34:34.361Z,8.80
2022-12-29T22:37:04.571Z,8.80
2022-12-29T22:39:41.450Z,8.90
2022-12-29T22:42:09.403Z,8.80
2022-12-29T22:44:37.219Z,8.80
2022-12-29T22:47:09.253Z,8.90
2022-12-29T22:49:37.096Z,8.90
2022-12-29T22:52:04.813Z,8.80
2022-12-29T22:54:37.332Z,8.90
2022-12-29T22:57:08.127Z,8.90
2022-12-29T22:59:35.697Z,8.80
2022-12-29T23:02:04.377Z,8.90
2022-12-29T23:05:02.376Z,8.90
2022-12-29T23:07:25.384Z,8.80
2022-12-29T23:09:52.869Z,8.90
2022-12-29T23:12:20.357Z,8.90
2022-12-29T23:14:54.786Z,8.90
2022-12-29T23:17:25.916Z,8.90
2022-12-29T23:20:09.463Z,8.90
2022-12-29T23:22:44.573Z,9.00
2022-12-29T23:25:14.848Z,9.00
2022-12-29T23:27:51.255Z,9.00
2022-12-29T23:30:22.011Z,9.00
2022-12-29T23:32:55.734Z,8.90
2022-12-29T23:35:23.346Z,9.10
2022-12-29T23:37:54.259Z,9.00
2022-12-29T23:40:22.561Z,8.90
2022-12-29T23:42:54.428Z,8.90
2022-12-29T23:45:23.596Z,9.10
2022-12-29T23:47:54.254Z,9.10
2022-12-29T23:50:21.877Z,9.00
2022-12-29T23:52:54.979Z,9.10
2022-12-29T23:55:23.034Z,9.20
2022-12-29T23:57:50.473Z,9.10
